sensor_id;sensor_type;location;lat;lon;timestamp;pressure;altitude;pressure_sealevel;temperature;humidity
64253;BME280;50592;52.958;-7.470;2023-11-21T00:01:16;101408.34;;;7.51;100.00
64253;BME280;50592;52.958;-7.470;2023-11-21T00:03:42;101421.41;;;7.53;100.00
64253;BME280;50592;52.958;-7.470;2023-11-21T00:06:09;101423.19;;;7.52;100.00
64253;BME280;50592;52.958;-7.470;2023-11-21T00:08:36;101432.84;;;7.52;100.00
64253;BME280;50592;52.958;-7.470;2023-11-21T00:11:07;101426.00;;;7.49;100.00
64253;BME280;50592;52.958;-7.470;2023-11-21T00:13:35;101409.78;;;7.42;100.00
64253;BME280;50592;52.958;-7.470;2023-11-21T00:16:06;101413.47;;;7.40;100.00
64253;BME280;50592;52.958;-7.470;2023-11-21T00:18:55;101429.13;;;7.41;100.00
64253;BME280;50592;52.958;-7.470;2023-11-21T00:21:35;101423.53;;;7.33;100.00
64253;BME280;50592;52.958;-7.470;2023-11-21T00:24:41;101401.09;;;7.27;100.00
64253;BME280;50592;52.958;-7.470;2023-11-21T00:27:54;101406.56;;;7.24;100.00
64253;BME280;50592;52.958;-7.470;2023-11-21T00:31:21;101432.97;;;7.23;100.00
64253;BME280;50592;52.958;-7.470;2023-11-21T00:42:15;101456.44;;;7.26;100.00
64253;BME280;50592;52.958;-7.470;2023-11-21T00:45:11;101458.78;;;7.30;100.00
64253;BME280;50592;52.958;-7.470;2023-11-21T00:48:43;101473.78;;;7.28;100.00
64253;BME280;50592;52.958;-7.470;2023-11-21T00:51:12;101465.63;;;7.18;100.00
64253;BME280;50592;52.958;-7.470;2023-11-21T00:55:08;101472.00;;;7.29;100.00
64253;BME280;50592;52.958;-7.470;2023-11-21T00:58:33;101469.31;;;7.16;100.00
64253;BME280;50592;52.958;-7.470;2023-11-21T01:01:02;101466.13;;;7.11;100.00
64253;BME280;50592;52.958;-7.470;2023-11-21T01:04:02;101471.84;;;7.17;100.00
64253;BME280;50592;52.958;-7.470;2023-11-21T01:06:48;101489.09;;;7.22;100.00
64253;BME280;50592;52.958;-7.470;2023-11-21T01:13:25;101492.03;;;7.17;100.00
64253;BME280;50592;52.958;-7.470;2023-11-21T01:15:58;101495.78;;;7.13;100.00
64253;BME280;50592;52.958;-7.470;2023-11-21T01:21:56;101499.63;;;7.22;100.00
64253;BME280;50592;52.958;-7.470;2023-11-21T01:25:36;101516.72;;;7.29;100.00
64253;BME280;50592;52.958;-7.470;2023-11-21T01:28:35;101504.50;;;7.28;100.00
64253;BME280;50592;52.958;-7.470;2023-11-21T01:32:02;101517.53;;;7.29;100.00
64253;BME280;50592;52.958;-7.470;2023-11-21T01:34:40;101506.59;;;7.23;100.00
64253;BME280;50592;52.958;-7.470;2023-11-21T01:37:44;101512.13;;;7.18;100.00
64253;BME280;50592;52.958;-7.470;2023-11-21T01:40:14;101502.63;;;7.15;100.00
64253;BME280;50592;52.958;-7.470;2023-11-21T01:47:33;101519.63;;;7.24;100.00
64253;BME280;50592;52.958;-7.470;2023-11-21T01:53:47;101530.63;;;7.31;100.00
64253;BME280;50592;52.958;-7.470;2023-11-21T01:56:52;101540.00;;;7.35;100.00
64253;BME280;50592;52.958;-7.470;2023-11-21T01:59:40;101534.75;;;7.35;100.00
64253;BME280;50592;52.958;-7.470;2023-11-21T02:02:23;101537.66;;;7.30;100.00
64253;BME280;50592;52.958;-7.470;2023-11-21T02:05:00;101545.19;;;7.22;100.00
64253;BME280;50592;52.958;-7.470;2023-11-21T02:07:49;101540.97;;;7.19;100.00
64253;BME280;50592;52.958;-7.470;2023-11-21T02:10:20;101545.56;;;7.16;100.00
64253;BME280;50592;52.958;-7.470;2023-11-21T02:13:24;101563.19;;;7.14;100.00
64253;BME280;50592;52.958;-7.470;2023-11-21T02:16:38;101562.47;;;7.12;100.00
64253;BME280;50592;52.958;-7.470;2023-11-21T02:29:36;101584.34;;;7.12;100.00
64253;BME280;50592;52.958;-7.470;2023-11-21T02:32:25;101584.72;;;7.06;100.00
64253;BME280;50592;52.958;-7.470;2023-11-21T02:34:53;101584.22;;;6.99;100.00
64253;BME280;50592;52.958;-7.470;2023-11-21T02:37:26;101593.06;;;6.98;100.00
64253;BME280;50592;52.958;-7.470;2023-11-21T02:39:52;101598.78;;;6.90;100.00
64253;BME280;50592;52.958;-7.470;2023-11-21T02:42:18;101604.91;;;6.91;100.00
64253;BME280;50592;52.958;-7.470;2023-11-21T02:44:44;101611.44;;;6.83;100.00
64253;BME280;50592;52.958;-7.470;2023-11-21T02:47:10;101608.81;;;6.83;100.00
64253;BME280;50592;52.958;-7.470;2023-11-21T02:49:37;101620.84;;;6.88;100.00
64253;BME280;50592;52.958;-7.470;2023-11-21T02:52:05;101607.22;;;6.81;100.00
64253;BME280;50592;52.958;-7.470;2023-11-21T02:54:34;101603.09;;;6.77;100.00
64253;BME280;50592;52.958;-7.470;2023-11-21T02:57:06;101613.00;;;6.72;100.00
64253;BME280;50592;52.958;-7.470;2023-11-21T02:59:33;101615.56;;;6.73;100.00
64253;BME280;50592;52.958;-7.470;2023-11-21T03:02:00;101618.00;;;6.76;100.00
64253;BME280;50592;52.958;-7.470;2023-11-21T03:04:27;101616.66;;;6.69;100.00
64253;BME280;50592;52.958;-7.470;2023-11-21T03:06:53;101627.66;;;6.76;100.00
64253;BME280;50592;52.958;-7.470;2023-11-21T03:09:18;101629.38;;;6.77;100.00
64253;BME280;50592;52.958;-7.470;2023-11-21T03:11:52;101595.91;;;6.64;100.00
64253;BME280;50592;52.958;-7.470;2023-11-21T03:14:21;101612.59;;;6.63;100.00
64253;BME280;50592;52.958;-7.470;2023-11-21T03:16:48;101606.50;;;6.63;100.00
64253;BME280;50592;52.958;-7.470;2023-11-21T03:19:15;101625.47;;;6.68;100.00
64253;BME280;50592;52.958;-7.470;2023-11-21T03:21:40;101627.16;;;6.69;100.00
64253;BME280;50592;52.958;-7.470;2023-11-21T03:24:06;101615.81;;;6.68;100.00
64253;BME280;50592;52.958;-7.470;2023-11-21T03:26:33;101621.63;;;6.74;100.00
64253;BME280;50592;52.958;-7.470;2023-11-21T03:28:59;101627.75;;;6.74;100.00
64253;BME280;50592;52.958;-7.470;2023-11-21T03:31:25;101630.19;;;6.77;100.00
64253;BME280;50592;52.958;-7.470;2023-11-21T03:33:52;101631.91;;;6.78;100.00
64253;BME280;50592;52.958;-7.470;2023-11-21T03:36:19;101629.47;;;6.75;100.00
64253;BME280;50592;52.958;-7.470;2023-11-21T03:38:45;101625.28;;;6.71;100.00
64253;BME280;50592;52.958;-7.470;2023-11-21T03:41:11;101621.34;;;6.64;100.00
64253;BME280;50592;52.958;-7.470;2023-11-21T03:43:37;101621.53;;;6.61;100.00
64253;BME280;50592;52.958;-7.470;2023-11-21T03:46:03;101625.94;;;6.60;100.00
64253;BME280;50592;52.958;-7.470;2023-11-21T03:48:32;101635.56;;;6.60;100.00
64253;BME280;50592;52.958;-7.470;2023-11-21T03:51:03;101646.00;;;6.61;100.00
64253;BME280;50592;52.958;-7.470;2023-11-21T03:53:29;101635.75;;;6.56;100.00
64253;BME280;50592;52.958;-7.470;2023-11-21T03:55:55;101640.56;;;6.64;100.00
64253;BME280;50592;52.958;-7.470;2023-11-21T03:58:21;101616.44;;;6.57;100.00
64253;BME280;50592;52.958;-7.470;2023-11-21T04:00:56;101629.31;;;6.62;100.00
64253;BME280;50592;52.958;-7.470;2023-11-21T04:03:22;101640.47;;;6.66;100.00
64253;BME280;50592;52.958;-7.470;2023-11-21T04:05:48;101649.22;;;6.66;100.00
64253;BME280;50592;52.958;-7.470;2023-11-21T04:08:13;101646.75;;;6.63;100.00
64253;BME280;50592;52.958;-7.470;2023-11-21T04:10:39;101658.88;;;6.66;100.00
64253;BME280;50592;52.958;-7.470;2023-11-21T04:13:06;101659.63;;;6.68;100.00
64253;BME280;50592;52.958;-7.470;2023-11-21T04:15:32;101666.16;;;6.77;100.00
64253;BME280;50592;52.958;-7.470;2023-11-21T04:17:58;101675.72;;;6.78;100.00
64253;BME280;50592;52.958;-7.470;2023-11-21T04:20:24;101671.50;;;6.75;100.00
64253;BME280;50592;52.958;-7.470;2023-11-21T04:22:50;101673.00;;;6.79;100.00
64253;BME280;50592;52.958;-7.470;2023-11-21T04:25:16;101665.88;;;6.81;100.00
64253;BME280;50592;52.958;-7.470;2023-11-21T04:27:43;101672.66;;;6.86;100.00
64253;BME280;50592;52.958;-7.470;2023-11-21T04:30:13;101670.78;;;6.88;100.00
64253;BME280;50592;52.958;-7.470;2023-11-21T04:32:40;101661.53;;;6.80;100.00
64253;BME280;50592;52.958;-7.470;2023-11-21T04:35:06;101671.16;;;6.81;100.00
64253;BME280;50592;52.958;-7.470;2023-11-21T04:37:32;101669.34;;;6.82;100.00
64253;BME280;50592;52.958;-7.470;2023-11-21T04:39:57;101679.13;;;6.80;100.00
64253;BME280;50592;52.958;-7.470;2023-11-21T04:42:23;101686.16;;;6.79;100.00
64253;BME280;50592;52.958;-7.470;2023-11-21T04:44:49;101690.53;;;6.79;100.00
64253;BME280;50592;52.958;-7.470;2023-11-21T04:47:15;101680.03;;;6.79;100.00
64253;BME280;50592;52.958;-7.470;2023-11-21T04:49:42;101682.38;;;6.83;100.00
64253;BME280;50592;52.958;-7.470;2023-11-21T04:52:11;101691.13;;;6.84;100.00
64253;BME280;50592;52.958;-7.470;2023-11-21T04:54:37;101705.13;;;6.85;100.00
64253;BME280;50592;52.958;-7.470;2023-11-21T04:57:02;101703.25;;;6.87;100.00
64253;BME280;50592;52.958;-7.470;2023-11-21T04:59:29;101708.59;;;6.85;100.00
64253;BME280;50592;52.958;-7.470;2023-11-21T05:01:55;101710.28;;;6.86;100.00
64253;BME280;50592;52.958;-7.470;2023-11-21T05:04:21;101712.06;;;6.86;100.00
64253;BME280;50592;52.958;-7.470;2023-11-21T05:06:54;101722.31;;;6.90;100.00
64253;BME280;50592;52.958;-7.470;2023-11-21T05:09:23;101721.81;;;6.83;100.00
64253;BME280;50592;52.958;-7.470;2023-11-21T05:11:48;101735.63;;;6.87;100.00
64253;BME280;50592;52.958;-7.470;2023-11-21T05:14:14;101744.28;;;6.89;100.00
64253;BME280;50592;52.958;-7.470;2023-11-21T05:16:40;101754.72;;;6.91;100.00
64253;BME280;50592;52.958;-7.470;2023-11-21T05:19:05;101762.41;;;6.94;100.00
64253;BME280;50592;52.958;-7.470;2023-11-21T05:21:32;101754.44;;;6.95;100.00
64253;BME280;50592;52.958;-7.470;2023-11-21T05:23:58;101752.81;;;6.93;100.00
64253;BME280;50592;52.958;-7.470;2023-11-21T05:26:24;101755.53;;;6.91;100.00
64253;BME280;50592;52.958;-7.470;2023-11-21T05:28:53;101756.56;;;6.89;100.00
64253;BME280;50592;52.958;-7.470;2023-11-21T05:31:19;101754.22;;;6.84;100.00
64253;BME280;50592;52.958;-7.470;2023-11-21T05:33:44;101762.88;;;6.86;100.00
64253;BME280;50592;52.958;-7.470;2023-11-21T05:36:10;101761.16;;;6.85;100.00
64253;BME280;50592;52.958;-7.470;2023-11-21T05:38:36;101774.28;;;6.85;100.00
64253;BME280;50592;52.958;-7.470;2023-11-21T05:41:05;101782.34;;;6.82;100.00
64253;BME280;50592;52.958;-7.470;2023-11-21T05:43:32;101794.31;;;6.88;100.00
64253;BME280;50592;52.958;-7.470;2023-11-21T05:46:01;101788.13;;;6.89;100.00
64253;BME280;50592;52.958;-7.470;2023-11-21T05:48:27;101772.94;;;6.94;100.00
64253;BME280;50592;52.958;-7.470;2023-11-21T05:50:52;101771.91;;;6.97;100.00
64253;BME280;50592;52.958;-7.470;2023-11-21T05:53:21;101772.00;;;6.95;100.00
64253;BME280;50592;52.958;-7.470;2023-11-21T05:55:47;101771.47;;;6.88;100.00
64253;BME280;50592;52.958;-7.470;2023-11-21T05:58:13;101762.88;;;6.86;100.00
64253;BME280;50592;52.958;-7.470;2023-11-21T06:00:39;101769.97;;;6.84;100.00
64253;BME280;50592;52.958;-7.470;2023-11-21T06:03:05;101770.91;;;6.83;100.00
64253;BME280;50592;52.958;-7.470;2023-11-21T06:05:35;101769.81;;;6.87;100.00
64253;BME280;50592;52.958;-7.470;2023-11-21T06:08:05;101770.91;;;6.83;100.00
64253;BME280;50592;52.958;-7.470;2023-11-21T06:10:32;101781.34;;;6.85;100.00
64253;BME280;50592;52.958;-7.470;2023-11-21T06:12:57;101786.88;;;6.80;100.00
64253;BME280;50592;52.958;-7.470;2023-11-21T06:15:23;101787.78;;;6.79;100.00
64253;BME280;50592;52.958;-7.470;2023-11-21T06:17:50;101790.31;;;6.80;100.00
64253;BME280;50592;52.958;-7.470;2023-11-21T06:20:19;101785.50;;;6.73;100.00
64253;BME280;50592;52.958;-7.470;2023-11-21T06:22:48;101789.75;;;6.75;100.00
64253;BME280;50592;52.958;-7.470;2023-11-21T06:25:15;101785.06;;;6.64;100.00
64253;BME280;50592;52.958;-7.470;2023-11-21T06:27:46;101788.81;;;6.60;100.00
64253;BME280;50592;52.958;-7.470;2023-11-21T06:30:14;101800.44;;;6.56;100.00
64253;BME280;50592;52.958;-7.470;2023-11-21T06:32:41;101804.31;;;6.49;100.00
64253;BME280;50592;52.958;-7.470;2023-11-21T06:35:08;101792.44;;;6.41;100.00
64253;BME280;50592;52.958;-7.470;2023-11-21T06:37:37;101808.03;;;6.44;100.00
64253;BME280;50592;52.958;-7.470;2023-11-21T06:40:03;101800.25;;;6.43;100.00
64253;BME280;50592;52.958;-7.470;2023-11-21T06:42:30;101785.56;;;6.39;100.00
64253;BME280;50592;52.958;-7.470;2023-11-21T06:44:57;101798.69;;;6.39;100.00
64253;BME280;50592;52.958;-7.470;2023-11-21T06:47:31;101794.13;;;6.42;100.00
64253;BME280;50592;52.958;-7.470;2023-11-21T06:49:57;101805.59;;;6.41;100.00
64253;BME280;50592;52.958;-7.470;2023-11-21T06:52:23;101809.91;;;6.42;100.00
64253;BME280;50592;52.958;-7.470;2023-11-21T06:54:48;101802.00;;;6.42;100.00
64253;BME280;50592;52.958;-7.470;2023-11-21T06:57:17;101787.28;;;6.40;100.00
64253;BME280;50592;52.958;-7.470;2023-11-21T06:59:44;101797.78;;;6.40;100.00
64253;BME280;50592;52.958;-7.470;2023-11-21T07:02:10;101798.53;;;6.42;100.00
64253;BME280;50592;52.958;-7.470;2023-11-21T07:04:36;101795.81;;;6.43;100.00
64253;BME280;50592;52.958;-7.470;2023-11-21T07:07:02;101801.75;;;6.47;100.00
64253;BME280;50592;52.958;-7.470;2023-11-21T07:09:29;101802.78;;;6.44;100.00
64253;BME280;50592;52.958;-7.470;2023-11-21T07:11:56;101799.91;;;6.49;100.00
64253;BME280;50592;52.958;-7.470;2023-11-21T07:14:24;101793.38;;;6.40;100.00
64253;BME280;50592;52.958;-7.470;2023-11-21T07:16:50;101810.59;;;6.46;100.00
64253;BME280;50592;52.958;-7.470;2023-11-21T07:19:18;101806.41;;;6.42;100.00
64253;BME280;50592;52.958;-7.470;2023-11-21T07:21:43;101799.31;;;6.44;100.00
64253;BME280;50592;52.958;-7.470;2023-11-21T07:24:09;101817.69;;;6.44;100.00
64253;BME280;50592;52.958;-7.470;2023-11-21T07:26:36;101818.81;;;6.40;100.00
64253;BME280;50592;52.958;-7.470;2023-11-21T07:29:06;101840.38;;;6.45;100.00
64253;BME280;50592;52.958;-7.470;2023-11-21T07:31:38;101850.41;;;6.38;100.00
64253;BME280;50592;52.958;-7.470;2023-11-21T07:34:04;101853.19;;;6.35;100.00
64253;BME280;50592;52.958;-7.470;2023-11-21T07:36:34;101846.63;;;6.26;100.00
64253;BME280;50592;52.958;-7.470;2023-11-21T07:39:00;101850.81;;;6.30;100.00
64253;BME280;50592;52.958;-7.470;2023-11-21T07:41:28;101854.44;;;6.28;100.00
64253;BME280;50592;52.958;-7.470;2023-11-21T07:43:55;101860.53;;;6.28;100.00
64253;BME280;50592;52.958;-7.470;2023-11-21T07:46:21;101863.00;;;6.31;100.00
64253;BME280;50592;52.958;-7.470;2023-11-21T07:48:47;101865.28;;;6.38;100.00
64253;BME280;50592;52.958;-7.470;2023-11-21T07:51:20;101867.59;;;6.44;100.00
64253;BME280;50592;52.958;-7.470;2023-11-21T07:53:55;101876.16;;;6.48;100.00
64253;BME280;50592;52.958;-7.470;2023-11-21T07:56:24;101877.03;;;6.48;100.00
64253;BME280;50592;52.958;-7.470;2023-11-21T07:58:51;101877.84;;;6.49;100.00
64253;BME280;50592;52.958;-7.470;2023-11-21T08:01:18;101883.97;;;6.49;100.00
64253;BME280;50592;52.958;-7.470;2023-11-21T08:03:45;101887.38;;;6.51;100.00
64253;BME280;50592;52.958;-7.470;2023-11-21T08:06:18;101886.44;;;6.52;100.00
64253;BME280;50592;52.958;-7.470;2023-11-21T08:08:45;101867.31;;;6.32;100.00
64253;BME280;50592;52.958;-7.470;2023-11-21T08:11:34;101877.06;;;6.30;100.00
64253;BME280;50592;52.958;-7.470;2023-11-21T08:14:05;101878.63;;;6.17;100.00
64253;BME280;50592;52.958;-7.470;2023-11-21T08:16:34;101899.63;;;6.17;100.00
64253;BME280;50592;52.958;-7.470;2023-11-21T08:19:00;101899.00;;;6.12;100.00
64253;BME280;50592;52.958;-7.470;2023-11-21T08:21:27;101895.91;;;6.03;100.00
64253;BME280;50592;52.958;-7.470;2023-11-21T08:23:54;101903.94;;;6.00;100.00
64253;BME280;50592;52.958;-7.470;2023-11-21T08:26:27;101907.47;;;5.99;100.00
64253;BME280;50592;52.958;-7.470;2023-11-21T08:28:56;101909.34;;;5.97;100.00
64253;BME280;50592;52.958;-7.470;2023-11-21T08:31:35;101918.75;;;6.01;100.00
64253;BME280;50592;52.958;-7.470;2023-11-21T08:34:12;101915.50;;;5.96;100.00
64253;BME280;50592;52.958;-7.470;2023-11-21T08:36:44;101918.06;;;5.98;100.00
64253;BME280;50592;52.958;-7.470;2023-11-21T08:39:12;101922.91;;;5.88;100.00
64253;BME280;50592;52.958;-7.470;2023-11-21T08:41:39;101918.44;;;5.90;100.00
64253;BME280;50592;52.958;-7.470;2023-11-21T08:44:06;101932.91;;;5.99;100.00
64253;BME280;50592;52.958;-7.470;2023-11-21T08:47:13;101933.69;;;6.18;100.00
64253;BME280;50592;52.958;-7.470;2023-11-21T08:49:50;101934.84;;;6.30;100.00
64253;BME280;50592;52.958;-7.470;2023-11-21T08:52:19;101934.59;;;6.35;100.00
64253;BME280;50592;52.958;-7.470;2023-11-21T08:54:49;101934.13;;;6.44;100.00
64253;BME280;50592;52.958;-7.470;2023-11-21T08:57:25;101940.50;;;6.56;100.00
64253;BME280;50592;52.958;-7.470;2023-11-21T09:00:09;101954.63;;;6.72;100.00
64253;BME280;50592;52.958;-7.470;2023-11-21T09:02:50;101958.84;;;6.74;100.00
64253;BME280;50592;52.958;-7.470;2023-11-21T09:05:39;101964.72;;;6.79;100.00
64253;BME280;50592;52.958;-7.470;2023-11-21T09:08:14;101969.97;;;6.79;100.00
64253;BME280;50592;52.958;-7.470;2023-11-21T09:10:47;101962.88;;;6.81;100.00
64253;BME280;50592;52.958;-7.470;2023-11-21T09:13:14;101962.53;;;6.88;100.00
64253;BME280;50592;52.958;-7.470;2023-11-21T09:15:45;101960.31;;;6.96;100.00
64253;BME280;50592;52.958;-7.470;2023-11-21T09:18:29;101971.63;;;7.14;100.00
64253;BME280;50592;52.958;-7.470;2023-11-21T09:21:01;101963.66;;;7.16;100.00
64253;BME280;50592;52.958;-7.470;2023-11-21T09:23:28;101944.13;;;7.20;100.00
64253;BME280;50592;52.958;-7.470;2023-11-21T09:26:02;101957.47;;;7.33;100.00
64253;BME280;50592;52.958;-7.470;2023-11-21T09:29:26;101949.56;;;7.33;100.00
64253;BME280;50592;52.958;-7.470;2023-11-21T09:31:57;101945.06;;;7.35;100.00
64253;BME280;50592;52.958;-7.470;2023-11-21T09:34:42;101946.41;;;7.42;100.00
64253;BME280;50592;52.958;-7.470;2023-11-21T09:37:13;101944.28;;;7.49;100.00
64253;BME280;50592;52.958;-7.470;2023-11-21T09:39:40;101941.84;;;7.46;100.00
64253;BME280;50592;52.958;-7.470;2023-11-21T09:42:12;101947.34;;;7.57;100.00
64253;BME280;50592;52.958;-7.470;2023-11-21T09:45:05;101942.69;;;7.63;100.00
64253;BME280;50592;52.958;-7.470;2023-11-21T09:47:42;101945.31;;;7.63;100.00
64253;BME280;50592;52.958;-7.470;2023-11-21T09:50:35;101942.09;;;7.57;100.00
64253;BME280;50592;52.958;-7.470;2023-11-21T09:53:30;101948.13;;;7.60;100.00
64253;BME280;50592;52.958;-7.470;2023-11-21T09:57:17;101970.59;;;7.65;100.00
64253;BME280;50592;52.958;-7.470;2023-11-21T09:59:53;101961.28;;;7.60;100.00
64253;BME280;50592;52.958;-7.470;2023-11-21T10:02:39;101949.03;;;7.59;100.00
64253;BME280;50592;52.958;-7.470;2023-11-21T10:06:14;101943.94;;;7.55;100.00
64253;BME280;50592;52.958;-7.470;2023-11-21T10:13:58;101943.78;;;7.59;100.00
64253;BME280;50592;52.958;-7.470;2023-11-21T10:16:37;101941.50;;;7.52;100.00
64253;BME280;50592;52.958;-7.470;2023-11-21T10:19:16;101946.66;;;7.54;100.00
64253;BME280;50592;52.958;-7.470;2023-11-21T10:26:11;101946.41;;;7.42;100.00
64253;BME280;50592;52.958;-7.470;2023-11-21T10:28:58;101966.94;;;7.52;100.00
64253;BME280;50592;52.958;-7.470;2023-11-21T10:34:24;101985.63;;;7.63;100.00
64253;BME280;50592;52.958;-7.470;2023-11-21T10:36:50;101983.22;;;7.75;100.00
64253;BME280;50592;52.958;-7.470;2023-11-21T10:39:19;101989.41;;;7.90;100.00
64253;BME280;50592;52.958;-7.470;2023-11-21T10:42:08;101994.53;;;8.07;100.00
64253;BME280;50592;52.958;-7.470;2023-11-21T10:44:55;102001.31;;;8.12;100.00
64253;BME280;50592;52.958;-7.470;2023-11-21T10:47:21;102007.00;;;8.20;100.00
64253;BME280;50592;52.958;-7.470;2023-11-21T10:50:03;102010.13;;;8.41;100.00
64253;BME280;50592;52.958;-7.470;2023-11-21T10:53:07;102004.31;;;8.51;100.00
64253;BME280;50592;52.958;-7.470;2023-11-21T10:56:06;102004.66;;;8.61;100.00
64253;BME280;50592;52.958;-7.470;2023-11-21T10:58:35;102002.28;;;8.56;100.00
64253;BME280;50592;52.958;-7.470;2023-11-21T11:01:05;102001.91;;;8.62;100.00
64253;BME280;50592;52.958;-7.470;2023-11-21T11:04:55;102007.00;;;8.80;100.00
64253;BME280;50592;52.958;-7.470;2023-11-21T11:08:32;102008.13;;;8.90;100.00
64253;BME280;50592;52.958;-7.470;2023-11-21T11:14:50;102001.06;;;9.05;100.00
64253;BME280;50592;52.958;-7.470;2023-11-21T11:17:18;101992.22;;;9.06;100.00
64253;BME280;50592;52.958;-7.470;2023-11-21T11:19:48;101993.81;;;9.09;100.00
64253;BME280;50592;52.958;-7.470;2023-11-21T11:22:37;101991.81;;;9.13;100.00
64253;BME280;50592;52.958;-7.470;2023-11-21T11:29:07;101977.78;;;9.27;100.00
64253;BME280;50592;52.958;-7.470;2023-11-21T11:32:03;101977.81;;;9.40;100.00
64253;BME280;50592;52.958;-7.470;2023-11-21T11:34:36;101984.31;;;9.49;100.00
64253;BME280;50592;52.958;-7.470;2023-11-21T11:37:07;101981.38;;;9.53;100.00
64253;BME280;50592;52.958;-7.470;2023-11-21T11:39:38;101981.63;;;9.63;100.00
64253;BME280;50592;52.958;-7.470;2023-11-21T11:42:08;101979.31;;;9.72;100.00
64253;BME280;50592;52.958;-7.470;2023-11-21T11:47:26;101960.78;;;9.86;100.00
64253;BME280;50592;52.958;-7.470;2023-11-21T11:50:12;101963.31;;;9.88;100.00
64253;BME280;50592;52.958;-7.470;2023-11-21T11:56:29;101971.16;;;10.02;100.00
64253;BME280;50592;52.958;-7.470;2023-11-21T11:59:00;101959.97;;;10.12;100.00
64253;BME280;50592;52.958;-7.470;2023-11-21T12:01:29;101959.03;;;10.13;100.00
64253;BME280;50592;52.958;-7.470;2023-11-21T12:10:57;101979.75;;;10.06;100.00
64253;BME280;50592;52.958;-7.470;2023-11-21T12:13:23;101968.84;;;9.98;100.00
64253;BME280;50592;52.958;-7.470;2023-11-21T12:26:06;101966.97;;;10.13;100.00
64253;BME280;50592;52.958;-7.470;2023-11-21T12:28:32;101976.25;;;10.18;100.00
64253;BME280;50592;52.958;-7.470;2023-11-21T12:30:59;101976.16;;;10.20;100.00
64253;BME280;50592;52.958;-7.470;2023-11-21T12:33:26;101982.91;;;10.24;100.00
64253;BME280;50592;52.958;-7.470;2023-11-21T12:35:54;101985.91;;;10.33;100.00
64253;BME280;50592;52.958;-7.470;2023-11-21T12:38:21;101970.69;;;10.36;100.00
64253;BME280;50592;52.958;-7.470;2023-11-21T12:40:50;101975.25;;;10.47;100.00
64253;BME280;50592;52.958;-7.470;2023-11-21T12:43:17;101981.91;;;10.53;100.00
64253;BME280;50592;52.958;-7.470;2023-11-21T12:45:46;101990.25;;;10.47;100.00
64253;BME280;50592;52.958;-7.470;2023-11-21T12:48:12;101983.38;;;10.44;100.00
64253;BME280;50592;52.958;-7.470;2023-11-21T12:50:49;101983.69;;;10.39;100.00
64253;BME280;50592;52.958;-7.470;2023-11-21T12:53:18;101975.31;;;10.33;100.00
64253;BME280;50592;52.958;-7.470;2023-11-21T12:55:47;101981.03;;;10.26;100.00
64253;BME280;50592;52.958;-7.470;2023-11-21T12:58:23;101993.59;;;10.23;100.00
64253;BME280;50592;52.958;-7.470;2023-11-21T13:00:53;102008.63;;;10.22;100.00
64253;BME280;50592;52.958;-7.470;2023-11-21T13:03:22;102019.41;;;10.19;100.00
64253;BME280;50592;52.958;-7.470;2023-11-21T13:05:53;102015.81;;;10.20;100.00
64253;BME280;50592;52.958;-7.470;2023-11-21T13:08:24;102007.97;;;10.18;100.00
64253;BME280;50592;52.958;-7.470;2023-11-21T13:10:52;102009.97;;;10.15;100.00
64253;BME280;50592;52.958;-7.470;2023-11-21T13:13:28;101996.97;;;10.12;100.00
64253;BME280;50592;52.958;-7.470;2023-11-21T13:16:16;101997.63;;;10.15;100.00
64253;BME280;50592;52.958;-7.470;2023-11-21T13:19:01;101995.94;;;10.14;100.00
64253;BME280;50592;52.958;-7.470;2023-11-21T13:21:29;101981.00;;;10.13;100.00
64253;BME280;50592;52.958;-7.470;2023-11-21T13:24:06;101980.91;;;10.15;100.00
64253;BME280;50592;52.958;-7.470;2023-11-21T13:26:36;101976.16;;;10.20;100.00
64253;BME280;50592;52.958;-7.470;2023-11-21T13:29:17;101976.91;;;10.22;100.00
64253;BME280;50592;52.958;-7.470;2023-11-21T13:31:51;101977.84;;;10.21;100.00
64253;BME280;50592;52.958;-7.470;2023-11-21T13:34:26;101991.16;;;10.20;100.00
64253;BME280;50592;52.958;-7.470;2023-11-21T13:36:53;101987.69;;;10.19;100.00
64253;BME280;50592;52.958;-7.470;2023-11-21T13:39:38;101992.13;;;10.18;100.00
64253;BME280;50592;52.958;-7.470;2023-11-21T13:42:09;101997.81;;;10.12;100.00
64253;BME280;50592;52.958;-7.470;2023-11-21T13:44:42;101993.56;;;10.10;100.00
64253;BME280;50592;52.958;-7.470;2023-11-21T13:47:21;101992.00;;;10.07;100.00
64253;BME280;50592;52.958;-7.470;2023-11-21T13:49:57;101985.84;;;10.07;100.00
64253;BME280;50592;52.958;-7.470;2023-11-21T13:52:26;101980.06;;;10.01;100.00
64253;BME280;50592;52.958;-7.470;2023-11-21T13:55:07;101977.19;;;10.04;100.00
64253;BME280;50592;52.958;-7.470;2023-11-21T13:57:47;101982.78;;;10.00;100.00
64253;BME280;50592;52.958;-7.470;2023-11-21T14:00:20;101983.50;;;10.02;100.00
64253;BME280;50592;52.958;-7.470;2023-11-21T14:03:05;101978.22;;;10.02;100.00
64253;BME280;50592;52.958;-7.470;2023-11-21T14:05:45;101982.47;;;10.04;100.00
64253;BME280;50592;52.958;-7.470;2023-11-21T14:08:26;101987.88;;;10.03;100.00
64253;BME280;50592;52.958;-7.470;2023-11-21T14:10:57;101988.28;;;9.97;100.00
64253;BME280;50592;52.958;-7.470;2023-11-21T14:13:32;101998.09;;;9.95;100.00
64253;BME280;50592;52.958;-7.470;2023-11-21T14:16:04;102006.88;;;9.95;100.00
64253;BME280;50592;52.958;-7.470;2023-11-21T14:18:37;102001.69;;;9.93;100.00
64253;BME280;50592;52.958;-7.470;2023-11-21T14:21:22;102004.44;;;9.92;100.00
64253;BME280;50592;52.958;-7.470;2023-11-21T14:23:56;101992.16;;;9.91;100.00
64253;BME280;50592;52.958;-7.470;2023-11-21T14:26:33;101993.97;;;9.90;100.00
64253;BME280;50592;52.958;-7.470;2023-11-21T14:29:05;101996.06;;;9.85;100.00
64253;BME280;50592;52.958;-7.470;2023-11-21T14:31:34;101990.69;;;9.87;100.00
64253;BME280;50592;52.958;-7.470;2023-11-21T14:34:07;101985.72;;;9.82;100.00